createdAt,value
2019-02-20T00:00:12.806Z,7.97
2019-02-20T00:02:41.078Z,7.90
2019-02-20T00:05:09.405Z,8.30
2019-02-20T00:07:37.626Z,8.07
2019-02-20T00:10:05.894Z,8.13
2019-02-20T00:12:34.182Z,8.57
2019-02-20T00:15:02.437Z,6.97
2019-02-20T00:17:30.734Z,6.70
2019-02-20T00:19:58.926Z,6.77
2019-02-20T00:22:27.216Z,6.67
2019-02-20T00:24:55.475Z,8.37
2019-02-20T00:27:23.761Z,8.00
2019-02-20T00:29:51.954Z,8.77
2019-02-20T00:32:20.246Z,9.00
2019-02-20T00:34:48.516Z,9.37
2019-02-20T00:37:16.829Z,9.00
2019-02-20T00:39:45.091Z,8.47
2019-02-20T00:42:13.358Z,8.40
2019-02-20T00:44:46.126Z,9.33
2019-02-20T00:47:30.881Z,9.60
2019-02-20T00:49:59.171Z,8.60
2019-02-20T00:52:31.750Z,7.37
2019-02-20T00:55:00.033Z,8.20
2019-02-20T00:57:28.298Z,8.73
2019-02-20T00:59:56.517Z,9.30
2019-02-20T01:02:24.783Z,8.50
2019-02-20T01:04:53.086Z,9.37
2019-02-20T01:07:21.417Z,8.63
2019-02-20T01:09:49.702Z,8.57
2019-02-20T01:12:17.899Z,8.93
2019-02-20T01:14:46.186Z,9.63
2019-02-20T01:17:14.832Z,10.03
2019-02-20T01:19:43.119Z,9.73
2019-02-20T01:22:11.385Z,17.07
2019-02-20T01:24:39.656Z,19.47
2019-02-20T01:27:07.953Z,18.20
2019-02-20T01:29:36.231Z,17.03
2019-02-20T01:32:04.513Z,12.27
2019-02-20T01:34:32.701Z,13.17
2019-02-20T01:37:00.926Z,16.03
2019-02-20T01:39:29.185Z,16.63
2019-02-20T01:41:57.408Z,18.20
2019-02-20T01:44:25.665Z,19.90
2019-02-20T01:46:53.906Z,21.20
2019-02-20T01:49:22.165Z,22.03
2019-02-20T01:51:50.364Z,9.70
2019-02-20T01:54:18.655Z,12.40
2019-02-20T01:56:47.710Z,14.23
2019-02-20T01:59:16.007Z,12.30
2019-02-20T02:01:44.268Z,13.27
2019-02-20T02:04:12.566Z,14.10
2019-02-20T02:06:40.832Z,14.70
2019-02-20T02:09:09.118Z,13.73
2019-02-20T02:11:37.310Z,14.60
2019-02-20T02:14:05.572Z,15.70
2019-02-20T02:16:33.798Z,15.80
2019-02-20T02:19:02.041Z,14.53
2019-02-20T02:21:30.293Z,14.77
2019-02-20T02:23:58.554Z,15.70
2019-02-20T02:26:26.852Z,17.10
2019-02-20T02:28:55.114Z,16.80
2019-02-20T02:31:23.346Z,17.77
2019-02-20T02:33:51.607Z,16.90
2019-02-20T02:36:19.903Z,17.50
2019-02-20T02:38:48.178Z,17.63
2019-02-20T02:41:16.397Z,17.00
2019-02-20T02:43:44.601Z,17.47
2019-02-20T02:46:12.968Z,16.27
2019-02-20T02:48:41.267Z,17.57
2019-02-20T02:51:09.559Z,18.50
2019-02-20T02:53:37.847Z,18.20
2019-02-20T02:56:06.101Z,21.40
2019-02-20T02:58:34.322Z,19.63
2019-02-20T03:01:02.525Z,19.80
2019-02-20T03:03:30.828Z,20.27
2019-02-20T03:05:59.105Z,21.63
2019-02-20T03:08:27.398Z,20.30
2019-02-20T03:10:55.593Z,20.63
2019-02-20T03:13:23.922Z,18.27
2019-02-20T03:15:52.172Z,18.47
2019-02-20T03:18:20.465Z,17.87
2019-02-20T03:20:48.666Z,18.37
2019-02-20T03:23:16.958Z,19.17
2019-02-20T03:25:45.236Z,18.50
2019-02-20T03:28:13.531Z,19.77
2019-02-20T03:30:41.799Z,18.60
2019-02-20T03:33:10.059Z,20.37
2019-02-20T03:35:38.359Z,21.03
2019-02-20T03:38:06.639Z,20.50
2019-02-20T03:40:35.102Z,20.43
2019-02-20T03:43:03.289Z,18.47
2019-02-20T03:45:31.608Z,18.53
2019-02-20T03:47:59.862Z,20.67
2019-02-20T03:50:28.095Z,21.00
2019-02-20T03:52:56.358Z,20.00
2019-02-20T03:55:24.593Z,19.10
2019-02-20T03:57:52.866Z,18.80
2019-02-20T04:00:21.097Z,19.47
2019-02-20T04:02:49.361Z,18.13
2019-02-20T04:05:17.556Z,21.20
2019-02-20T04:07:45.865Z,20.97
2019-02-20T04:10:14.130Z,20.90
2019-02-20T04:12:42.419Z,20.17
2019-02-20T04:15:10.697Z,20.00
2019-02-20T04:17:38.989Z,17.97
2019-02-20T04:20:07.550Z,18.10
2019-02-20T04:22:35.859Z,18.73
2019-02-20T04:25:04.696Z,17.93
2019-02-20T04:27:32.985Z,17.93
2019-02-20T04:30:01.197Z,18.43
2019-02-20T04:32:29.494Z,19.73
2019-02-20T04:34:57.690Z,18.10
2019-02-20T04:37:25.889Z,16.90
2019-02-20T04:39:54.123Z,20.10
2019-02-20T04:42:22.382Z,18.23
2019-02-20T04:44:50.683Z,18.00
2019-02-20T04:47:18.946Z,18.00
2019-02-20T04:49:47.166Z,19.17
2019-02-20T04:52:15.442Z,18.10
2019-02-20T04:54:43.670Z,19.20
2019-02-20T04:57:11.947Z,19.90
2019-02-20T04:59:40.305Z,19.03
2019-02-20T05:02:08.581Z,19.00
2019-02-20T05:04:36.866Z,19.20
2019-02-20T05:07:05.066Z,18.47
2019-02-20T05:09:33.358Z,18.07
2019-02-20T05:12:01.622Z,18.70
2019-02-20T05:14:30.085Z,19.33
2019-02-20T05:16:58.282Z,17.60
2019-02-20T05:19:26.574Z,14.17
2019-02-20T05:21:54.765Z,13.77
2019-02-20T05:24:25.109Z,15.70
2019-02-20T05:26:52.903Z,15.73
2019-02-20T05:29:21.165Z,17.10
2019-02-20T05:31:49.394Z,21.83
2019-02-20T05:34:17.598Z,20.90
2019-02-20T05:36:45.889Z,15.20
2019-02-20T05:39:14.081Z,17.43
2019-02-20T05:41:42.323Z,20.07
2019-02-20T05:44:10.582Z,19.77
2019-02-20T05:46:38.896Z,19.70
2019-02-20T05:49:07.169Z,18.03
2019-02-20T05:51:35.499Z,18.90
2019-02-20T05:54:03.767Z,18.03
2019-02-20T05:56:32.021Z,16.87
2019-02-20T05:59:00.239Z,18.23
2019-02-20T06:01:28.433Z,16.33
2019-02-20T06:03:56.734Z,16.70
2019-02-20T06:06:24.934Z,18.23
2019-02-20T06:08:53.238Z,16.00
2019-02-20T06:11:21.514Z,15.77
2019-02-20T06:13:49.815Z,15.70
2019-02-20T06:16:18.090Z,15.17
2019-02-20T06:18:46.387Z,14.70
2019-02-20T06:21:16.335Z,15.57
2019-02-20T06:23:44.538Z,13.67
2019-02-20T06:26:12.742Z,15.20
2019-02-20T06:28:41.018Z,15.37
2019-02-20T06:31:09.327Z,15.60
2019-02-20T06:33:37.537Z,13.13
2019-02-20T06:36:05.841Z,13.40
2019-02-20T06:38:34.137Z,14.07
2019-02-20T06:41:02.449Z,14.83
2019-02-20T06:43:30.690Z,14.50
2019-02-20T06:45:58.918Z,13.70
2019-02-20T06:48:27.118Z,14.53
2019-02-20T06:50:55.358Z,14.33
2019-02-20T06:53:23.549Z,13.00
2019-02-20T06:55:51.826Z,14.57
2019-02-20T06:58:20.121Z,14.50
2019-02-20T07:00:48.390Z,14.40
2019-02-20T07:03:16.624Z,14.13
2019-02-20T07:05:44.881Z,15.50
2019-02-20T07:08:20.350Z,14.07
2019-02-20T07:11:06.766Z,15.67
2019-02-20T07:13:36.526Z,14.83
2019-02-20T07:16:09.046Z,14.43
2019-02-20T07:18:41.751Z,15.73
2019-02-20T07:21:11.478Z,15.13
2019-02-20T07:23:41.224Z,15.97
2019-02-20T07:26:27.594Z,14.90
2019-02-20T07:29:13.590Z,13.60
2019-02-20T07:31:41.877Z,16.13
2019-02-20T07:34:10.154Z,17.73
2019-02-20T07:36:38.438Z,16.70
2019-02-20T07:39:06.710Z,16.60
2019-02-20T07:41:35.004Z,14.80
2019-02-20T07:44:03.269Z,14.77
2019-02-20T07:46:31.576Z,15.23
2019-02-20T07:48:59.841Z,15.60
2019-02-20T07:51:28.061Z,15.63
2019-02-20T07:53:56.258Z,16.57
2019-02-20T07:56:24.564Z,16.33
2019-02-20T07:58:52.825Z,17.20
2019-02-20T08:01:21.054Z,17.83
2019-02-20T08:03:49.322Z,19.60
2019-02-20T08:06:17.625Z,18.93
2019-02-20T08:08:45.894Z,20.50
2019-02-20T08:11:14.190Z,20.23
2019-02-20T08:13:42.457Z,20.63
2019-02-20T08:16:10.817Z,19.93
2019-02-20T08:18:39.034Z,17.73
2019-02-20T08:21:07.221Z,18.90
2019-02-20T08:23:35.446Z,18.47
2019-02-20T08:26:03.715Z,18.90
2019-02-20T08:28:32.014Z,21.70
2019-02-20T08:31:00.350Z,22.10
2019-02-20T08:33:28.578Z,22.40
2019-02-20T08:35:56.769Z,20.97
2019-02-20T08:38:25.053Z,21.43
2019-02-20T08:40:53.242Z,18.20
2019-02-20T08:43:21.469Z,19.00
2019-02-20T08:45:49.734Z,16.30
2019-02-20T08:48:18.042Z,16.80
2019-02-20T08:50:46.237Z,16.93
2019-02-20T08:53:14.436Z,16.90
2019-02-20T08:55:42.735Z,18.30
2019-02-20T08:58:10.997Z,17.37
2019-02-20T09:00:39.368Z,16.70
2019-02-20T09:03:07.626Z,15.93
2019-02-20T09:05:35.851Z,19.93
2019-02-20T09:08:04.111Z,18.93
2019-02-20T09:10:32.410Z,18.67
2019-02-20T09:13:00.682Z,17.83
2019-02-20T09:15:28.969Z,18.80
2019-02-20T09:17:57.173Z,20.07
2019-02-20T09:20:25.458Z,21.27
2019-02-20T09:22:53.655Z,24.73
2019-02-20T09:25:21.917Z,30.27
2019-02-20T09:27:50.140Z,32.87
2019-02-20T09:30:18.410Z,34.50
2019-02-20T09:32:46.626Z,35.37
2019-02-20T09:35:14.822Z,28.70
2019-02-20T09:37:43.117Z,27.27
2019-02-20T09:40:12.850Z,28.43
2019-02-20T09:42:41.323Z,28.03
2019-02-20T09:45:09.658Z,28.40
2019-02-20T09:47:37.955Z,30.23
2019-02-20T09:50:07.389Z,31.13
2019-02-20T09:52:35.745Z,30.63
2019-02-20T09:55:04.610Z,33.60
2019-02-20T09:57:32.928Z,34.10
2019-02-20T10:00:01.183Z,31.67
2019-02-20T10:02:29.446Z,30.27
2019-02-20T10:04:57.677Z,31.07
2019-02-20T10:07:25.946Z,33.27
2019-02-20T10:09:54.243Z,32.00
2019-02-20T10:12:22.511Z,29.33
2019-02-20T10:14:50.778Z,28.73
2019-02-20T10:17:19.047Z,25.40
2019-02-20T10:19:47.343Z,25.00
2019-02-20T10:22:15.610Z,23.30
2019-02-20T10:24:43.906Z,23.40
2019-02-20T10:27:12.172Z,22.50
2019-02-20T10:29:40.475Z,22.40
2019-02-20T10:32:08.666Z,20.20
2019-02-20T10:34:36.943Z,20.97
2019-02-20T10:37:05.230Z,18.63
2019-02-20T10:39:33.428Z,17.83
2019-02-20T10:42:01.731Z,19.63
2019-02-20T10:44:29.994Z,19.93
2019-02-20T10:46:58.223Z,19.80
2019-02-20T10:49:26.486Z,18.93
2019-02-20T10:51:54.705Z,18.33
2019-02-20T10:54:22.898Z,17.73
2019-02-20T10:56:51.118Z,16.43
2019-02-20T10:59:19.316Z,17.33
2019-02-20T11:01:47.581Z,15.73
2019-02-20T11:04:15.802Z,16.40
2019-02-20T11:06:44.003Z,16.00
2019-02-20T11:09:12.227Z,15.80
2019-02-20T11:11:40.490Z,13.93
2019-02-20T11:14:08.745Z,14.70
2019-02-20T11:16:37.025Z,14.37
2019-02-20T11:19:05.310Z,14.90
2019-02-20T11:21:33.575Z,13.80
2019-02-20T11:24:01.874Z,12.60
2019-02-20T11:26:30.236Z,14.20
2019-02-20T11:28:58.518Z,12.30
2019-02-20T11:31:26.785Z,12.00
2019-02-20T11:33:55.065Z,10.90
2019-02-20T11:36:23.355Z,10.40
2019-02-20T11:38:51.554Z,10.60
2019-02-20T11:41:19.847Z,8.80
2019-02-20T11:43:48.035Z,9.07
2019-02-20T11:46:16.250Z,7.20
2019-02-20T11:48:44.510Z,8.67
2019-02-20T11:51:12.810Z,7.40
2019-02-20T11:53:41.061Z,9.07
2019-02-20T11:56:09.378Z,8.70
2019-02-20T11:58:37.638Z,7.57
2019-02-20T12:01:05.969Z,7.53
2019-02-20T12:03:34.266Z,7.70
2019-02-20T12:06:02.453Z,7.37
2019-02-20T12:08:30.673Z,7.60
2019-02-20T12:10:58.933Z,7.23
2019-02-20T12:13:27.223Z,7.03
2019-02-20T12:15:55.407Z,6.47
2019-02-20T12:18:23.694Z,7.23
2019-02-20T12:20:51.889Z,7.60
2019-02-20T12:23:20.190Z,6.80
2019-02-20T12:25:48.454Z,9.50
2019-02-20T12:28:16.656Z,10.83
2019-02-20T12:30:45.113Z,11.13
2019-02-20T12:33:13.582Z,10.27
2019-02-20T12:35:42.380Z,11.03
2019-02-20T12:38:10.698Z,10.37
2019-02-20T12:40:38.924Z,10.43
2019-02-20T12:43:07.120Z,10.67
2019-02-20T12:45:35.409Z,10.37
2019-02-20T12:48:03.774Z,8.93
2019-02-20T12:50:32.070Z,10.33
2019-02-20T12:53:00.330Z,9.10
2019-02-20T12:55:28.625Z,8.60
2019-02-20T12:57:56.905Z,8.10
2019-02-20T13:00:25.429Z,9.10
2019-02-20T13:02:53.685Z,8.10
2019-02-20T13:05:22.018Z,8.30
2019-02-20T13:07:50.384Z,8.50
2019-02-20T13:10:18.647Z,7.87
2019-02-20T13:12:46.939Z,6.83
2019-02-20T13:15:15.207Z,8.47
2019-02-20T13:17:43.498Z,8.50
2019-02-20T13:20:11.765Z,7.93
2019-02-20T13:22:40.126Z,7.60
2019-02-20T13:25:08.992Z,8.33
2019-02-20T13:27:37.290Z,7.03
2019-02-20T13:30:07.091Z,7.43
2019-02-20T13:32:35.382Z,7.87
2019-02-20T13:35:03.941Z,8.13
2019-02-20T13:37:32.246Z,7.57
2019-02-20T13:40:00.506Z,7.40
2019-02-20T13:42:28.838Z,7.07
2019-02-20T13:44:57.179Z,7.03
2019-02-20T13:47:25.436Z,6.83
2019-02-20T13:49:53.721Z,6.20
2019-02-20T13:52:22.881Z,6.90
2019-02-20T13:54:53.230Z,6.80
2019-02-20T13:57:21.572Z,6.20
2019-02-20T13:59:49.920Z,6.50
2019-02-20T14:02:18.211Z,6.30
2019-02-20T14:04:46.548Z,6.90
2019-02-20T14:07:15.002Z,6.40
2019-02-20T14:09:43.541Z,6.37
2019-02-20T14:12:11.811Z,6.77
2019-02-20T14:14:40.074Z,6.00
2019-02-20T14:17:08.614Z,6.97
2019-02-20T14:19:36.874Z,6.20
2019-02-20T14:22:05.165Z,5.90
2019-02-20T14:24:33.568Z,7.00
2019-02-20T14:27:10.241Z,6.57
2019-02-20T14:29:31.769Z,6.00
2019-02-20T14:32:00.067Z,6.30
2019-02-20T14:34:28.329Z,5.57
2019-02-20T14:36:56.617Z,6.50
2019-02-20T14:39:24.894Z,5.80
2019-02-20T14:41:53.182Z,6.17
2019-02-20T14:44:21.449Z,6.30
2019-02-20T14:46:50.134Z,7.40
2019-02-20T14:49:18.394Z,5.80
2019-02-20T14:51:46.694Z,11.60
2019-02-20T14:54:14.961Z,11.70
2019-02-20T14:56:43.258Z,7.40
2019-02-20T14:59:11.554Z,9.20
2019-02-20T15:01:39.902Z,63.77
2019-02-20T15:04:08.394Z,7.87
2019-02-20T15:06:36.659Z,6.90
2019-02-20T15:09:05.387Z,8.57
2019-02-20T15:11:33.659Z,7.30
2019-02-20T15:14:01.958Z,6.43
2019-02-20T15:16:30.220Z,16.70
2019-02-20T15:18:58.490Z,9.50
2019-02-20T15:21:27.081Z,8.50
2019-02-20T15:23:55.351Z,9.10
2019-02-20T15:26:23.707Z,10.00
2019-02-20T15:28:51.987Z,8.50
2019-02-20T15:31:21.456Z,10.93
2019-02-20T15:33:49.738Z,9.13
2019-02-20T15:36:18.033Z,9.20
2019-02-20T15:38:46.302Z,8.90
2019-02-20T15:41:14.593Z,9.63
2019-02-20T15:43:42.864Z,8.70
2019-02-20T15:46:11.154Z,10.30
2019-02-20T15:48:39.422Z,8.33
2019-02-20T15:51:07.688Z,10.03
2019-02-20T15:53:35.977Z,8.67
2019-02-20T15:56:04.415Z,8.30
2019-02-20T15:58:33.561Z,8.80
2019-02-20T16:01:01.902Z,15.57
2019-02-20T16:03:30.202Z,11.10
2019-02-20T16:05:58.461Z,8.63
2019-02-20T16:08:26.771Z,8.90
2019-02-20T16:10:55.321Z,8.87
2019-02-20T16:13:23.676Z,8.10
2019-02-20T16:15:51.971Z,9.47
2019-02-20T16:18:20.909Z,8.83
2019-02-20T16:20:49.208Z,8.70
2019-02-20T16:23:17.466Z,9.30
2019-02-20T16:25:45.756Z,8.43
2019-02-20T16:28:14.019Z,8.83
2019-02-20T16:30:42.319Z,8.70
2019-02-20T16:33:10.582Z,9.27
2019-02-20T16:35:38.875Z,8.20
2019-02-20T16:38:07.142Z,8.60
2019-02-20T16:40:35.401Z,9.90
2019-02-20T16:43:03.889Z,8.37
2019-02-20T16:45:32.522Z,7.87
2019-02-20T16:48:00.818Z,9.33
2019-02-20T16:50:29.078Z,8.23
2019-02-20T16:52:57.375Z,10.10
2019-02-20T16:55:25.633Z,9.77
2019-02-20T16:57:56.842Z,10.80
2019-02-20T17:00:24.082Z,8.90
2019-02-20T17:02:52.696Z,9.10
2019-02-20T17:05:20.938Z,9.13
2019-02-20T17:07:49.222Z,9.97
2019-02-20T17:10:17.559Z,10.50
2019-02-20T17:12:45.830Z,11.97
2019-02-20T17:15:17.557Z,9.10
2019-02-20T17:17:45.826Z,11.53
2019-02-20T17:20:14.991Z,10.50
2019-02-20T17:22:43.326Z,10.83
2019-02-20T17:25:12.094Z,10.07
2019-02-20T17:27:40.362Z,10.67
2019-02-20T17:30:10.131Z,10.83
2019-02-20T17:32:38.477Z,10.60
2019-02-20T17:35:08.035Z,9.80
2019-02-20T17:37:36.310Z,9.17
2019-02-20T17:40:05.670Z,9.50
2019-02-20T17:42:33.930Z,8.80
2019-02-20T17:45:02.226Z,9.53
2019-02-20T17:47:30.490Z,9.67
2019-02-20T17:49:58.962Z,11.37
2019-02-20T17:52:27.249Z,8.70
2019-02-20T17:54:55.516Z,10.63
2019-02-20T17:57:23.809Z,13.60
2019-02-20T17:59:52.074Z,17.50
2019-02-20T18:02:20.298Z,19.23
2019-02-20T18:04:48.581Z,14.20
2019-02-20T18:07:17.239Z,12.33
2019-02-20T18:09:45.534Z,11.73
2019-02-20T18:12:13.832Z,10.30
2019-02-20T18:14:42.094Z,10.83
2019-02-20T18:17:10.283Z,11.20
2019-02-20T18:19:38.502Z,9.93
2019-02-20T18:22:06.769Z,13.70
2019-02-20T18:24:35.062Z,13.57
2019-02-20T18:27:03.331Z,11.47
2019-02-20T18:29:31.631Z,12.23
2019-02-20T18:31:59.910Z,15.97
2019-02-20T18:34:28.202Z,12.90
2019-02-20T18:36:56.488Z,13.23
2019-02-20T18:39:24.793Z,15.10
2019-02-20T18:41:54.154Z,12.37
2019-02-20T18:44:22.421Z,12.73
2019-02-20T18:46:50.716Z,12.60
2019-02-20T18:49:21.056Z,13.47
2019-02-20T18:51:48.932Z,12.03
2019-02-20T18:54:17.189Z,10.90
2019-02-20T18:56:45.495Z,11.97
2019-02-20T18:59:13.754Z,13.50
2019-02-20T19:01:42.043Z,13.90
2019-02-20T19:04:10.321Z,16.50
2019-02-20T19:06:38.653Z,13.50
2019-02-20T19:09:08.591Z,14.00
2019-02-20T19:11:53.458Z,13.60
2019-02-20T19:14:23.214Z,12.00
2019-02-20T19:16:58.653Z,11.70
2019-02-20T19:19:28.474Z,19.67
2019-02-20T19:21:58.285Z,20.17
2019-02-20T19:24:43.148Z,16.60
2019-02-20T19:27:24.879Z,16.80
2019-02-20T19:29:54.690Z,15.67
2019-02-20T19:32:40.775Z,11.93
2019-02-20T19:35:22.636Z,13.30
2019-02-20T19:38:06.273Z,12.27
2019-02-20T19:40:38.809Z,12.10
2019-02-20T19:43:11.204Z,11.70
2019-02-20T19:45:52.859Z,9.93
2019-02-20T19:48:28.619Z,11.30
2019-02-20T19:51:01.846Z,11.70
2019-02-20T19:53:31.756Z,11.10
2019-02-20T19:56:01.593Z,10.47
2019-02-20T19:58:40.397Z,11.80
2019-02-20T20:01:15.891Z,11.97
2019-02-20T20:03:51.679Z,11.87
2019-02-20T20:06:34.119Z,10.97
2019-02-20T20:09:03.938Z,11.20
2019-02-20T20:11:44.248Z,11.27
2019-02-20T20:14:07.991Z,12.37
2019-02-20T20:16:46.914Z,11.73
2019-02-20T20:19:28.859Z,12.00
2019-02-20T20:22:01.634Z,13.50
2019-02-20T20:24:34.407Z,13.00
2019-02-20T20:27:04.249Z,12.30
2019-02-20T20:29:37.025Z,11.67
2019-02-20T20:32:15.810Z,12.87
2019-02-20T20:34:48.544Z,12.20
2019-02-20T20:37:18.328Z,12.10
2019-02-20T20:39:48.159Z,11.70
2019-02-20T20:42:34.422Z,12.77
2019-02-20T20:45:04.326Z,12.40
2019-02-20T20:47:50.674Z,11.70
2019-02-20T20:50:20.475Z,10.60
2019-02-20T20:52:53.186Z,11.63
2019-02-20T20:55:22.942Z,12.43
2019-02-20T20:57:58.406Z,12.83
2019-02-20T21:00:31.391Z,15.37
2019-02-20T21:03:01.223Z,13.40
2019-02-20T21:05:39.675Z,12.63
2019-02-20T21:08:15.411Z,14.33
2019-02-20T21:10:46.589Z,12.93
2019-02-20T21:13:16.474Z,12.80
2019-02-20T21:16:04.314Z,12.67
2019-02-20T21:18:34.042Z,12.20
2019-02-20T21:21:03.802Z,13.23
2019-02-20T21:23:42.578Z,11.57
2019-02-20T21:26:30.618Z,13.73
2019-02-20T21:29:12.538Z,12.90
2019-02-20T21:32:00.850Z,12.10
2019-02-20T21:34:46.604Z,11.70
2019-02-20T21:37:25.102Z,12.70
2019-02-20T21:39:54.902Z,15.07
2019-02-20T21:42:30.613Z,17.20
2019-02-20T21:45:03.437Z,11.33
2019-02-20T21:47:36.018Z,11.60
2019-02-20T21:50:21.943Z,12.10
2019-02-20T21:52:54.710Z,11.00
2019-02-20T21:55:24.514Z,11.70
2019-02-20T21:57:57.368Z,13.00
2019-02-20T22:00:29.840Z,12.73
2019-02-20T22:03:08.366Z,11.17
2019-02-20T22:05:38.126Z,15.50
2019-02-20T22:08:14.007Z,15.03
2019-02-20T22:10:43.809Z,12.67
2019-02-20T22:13:25.389Z,14.87
2019-02-20T22:15:55.149Z,12.43
2019-02-20T22:18:27.830Z,13.33
2019-02-20T22:21:03.620Z,13.73
2019-02-20T22:23:39.430Z,14.60
2019-02-20T22:26:14.963Z,13.90
2019-02-20T22:28:44.778Z,14.07
2019-02-20T22:31:30.951Z,14.30
2019-02-20T22:34:00.775Z,13.90
2019-02-20T22:36:33.662Z,14.10
2019-02-20T22:39:04.662Z,13.10
2019-02-20T22:41:37.404Z,14.00
2019-02-20T22:44:10.171Z,12.13
2019-02-20T22:46:45.802Z,13.63
2019-02-20T22:49:30.615Z,14.47
2019-02-20T22:52:03.391Z,12.07
2019-02-20T22:54:35.897Z,12.60
2019-02-20T22:57:08.525Z,12.10
2019-02-20T23:00:02.091Z,12.10
2019-02-20T23:02:30.998Z,12.50
2019-02-20T23:05:03.773Z,11.90
2019-02-20T23:07:33.614Z,12.30
2019-02-20T23:10:03.409Z,12.20
2019-02-20T23:12:45.202Z,13.63
2019-02-20T23:15:13.399Z,14.20
2019-02-20T23:17:41.746Z,12.00
2019-02-20T23:20:10.010Z,12.73
2019-02-20T23:22:38.235Z,13.10
2019-02-20T23:25:06.489Z,12.40
2019-02-20T23:27:34.727Z,12.80
2019-02-20T23:30:12.608Z,12.97
2019-02-20T23:32:32.966Z,13.60
2019-02-20T23:35:01.248Z,12.60
2019-02-20T23:37:29.501Z,13.93
2019-02-20T23:39:57.728Z,13.50
2019-02-20T23:42:25.990Z,14.67
2019-02-20T23:44:54.208Z,14.20
2019-02-20T23:47:22.480Z,13.97
2019-02-20T23:49:50.770Z,14.60
2019-02-20T23:52:18.958Z,14.07
2019-02-20T23:54:47.254Z,15.13
2019-02-20T23:57:15.518Z,14.93
2019-02-20T23:59:43.751Z,14.80
